Time;durP1;ratioP1;P1;durP2;ratioP2;P2;SDS_P1;SDS_P2;PMS_P1;PMS_P2;Temp;Humidity;BMP_temperature;BMP_pressure;BME280_temperature;BME280_humidity;BME280_pressure;Samples;Min_cycle;Max_cycle;Signal;HPM_P1;HPM_P2
2021/09/03 00:01:10;;;;;;;34.70;24.02;;;12.60;99.90;;;;;;5100124;27;20519;-68
2021/09/03 00:03:36;;;;;;;35.25;23.08;;;12.60;99.90;;;;;;5126235;27;20040;-68
2021/09/03 00:06:02;;;;;;;35.05;23.02;;;12.70;99.90;;;;;;5099879;27;20040;-68
2021/09/03 00:08:27;;;;;;;39.20;24.40;;;12.60;99.90;;;;;;5099825;27;20031;-67
2021/09/03 00:10:54;;;;;;;44.83;26.85;;;12.60;99.90;;;;;;5098302;27;20926;-68
2021/09/03 00:13:20;;;;;;;43.72;26.27;;;12.60;99.90;;;;;;5123952;27;20165;-68
2021/09/03 00:15:46;;;;;;;42.50;24.88;;;12.40;99.90;;;;;;5095315;27;20408;-68
2021/09/03 00:18:12;;;;;;;37.95;23.63;;;12.40;99.90;;;;;;5096436;28;20123;-68
2021/09/03 00:20:37;;;;;;;33.90;22.67;;;12.40;99.90;;;;;;5096021;28;20054;-68
2021/09/03 00:23:03;;;;;;;37.63;23.90;;;12.30;99.90;;;;;;5095497;27;20039;-68
2021/09/03 00:25:29;;;;;;;34.45;21.90;;;12.30;99.90;;;;;;5098900;27;20059;-68
2021/09/03 00:27:55;;;;;;;40.15;24.20;;;12.30;99.90;;;;;;5099198;27;20036;-68
2021/09/03 00:30:21;;;;;;;38.75;23.65;;;12.30;99.90;;;;;;5097619;27;20066;-68
2021/09/03 00:32:46;;;;;;;39.45;23.73;;;12.30;99.90;;;;;;5095604;28;20058;-68
2021/09/03 00:35:12;;;;;;;40.25;24.38;;;12.30;99.90;;;;;;5095448;28;20118;-68
2021/09/03 00:37:38;;;;;;;37.75;24.95;;;12.30;99.90;;;;;;5098415;27;20043;-68
2021/09/03 00:40:05;;;;;;;40.60;25.15;;;12.30;99.90;;;;;;5096579;27;20039;-68
2021/09/03 00:42:30;;;;;;;50.58;27.17;;;12.30;99.90;;;;;;5098851;28;20084;-68
2021/09/03 00:44:56;;;;;;;39.28;24.33;;;12.30;99.90;;;;;;5096234;27;20413;-68
2021/09/03 00:47:22;;;;;;;43.33;26.02;;;12.30;99.90;;;;;;5097227;28;20054;-68
2021/09/03 00:49:48;;;;;;;37.88;25.05;;;12.20;99.90;;;;;;5125780;27;22021;-68
2021/09/03 00:52:14;;;;;;;36.42;24.40;;;12.20;99.90;;;;;;5095172;28;20036;-68
2021/09/03 00:54:40;;;;;;;38.25;25.10;;;12.30;99.90;;;;;;5097721;27;20489;-68
2021/09/03 00:57:06;;;;;;;38.65;24.30;;;12.20;99.90;;;;;;5097659;27;20091;-68
2021/09/03 00:59:32;;;;;;;31.10;21.08;;;12.30;99.90;;;;;;5097934;27;20115;-68
2021/09/03 01:01:59;;;;;;;30.92;21.15;;;12.30;99.90;;;;;;5128127;27;20059;-68
2021/09/03 01:04:24;;;;;;;25.48;19.15;;;12.20;99.90;;;;;;5097791;27;21569;-68
2021/09/03 01:06:50;;;;;;;27.30;20.00;;;12.30;99.90;;;;;;5095620;28;20130;-68
2021/09/03 01:09:16;;;;;;;33.05;22.98;;;12.20;99.90;;;;;;5097557;27;20047;-68
2021/09/03 01:11:42;;;;;;;40.17;24.15;;;12.10;99.90;;;;;;5095616;28;20481;-68
2021/09/03 01:14:07;;;;;;;30.42;21.60;;;12.10;99.90;;;;;;5096281;27;20170;-68
2021/09/03 01:16:33;;;;;;;37.50;24.55;;;12.00;99.90;;;;;;5094173;28;20032;-68
2021/09/03 01:18:59;;;;;;;37.58;23.42;;;12.00;99.90;;;;;;5096614;27;20549;-68
2021/09/03 01:21:25;;;;;;;45.00;27.23;;;12.00;99.90;;;;;;5128872;27;20406;-68
2021/09/03 01:23:51;;;;;;;39.08;25.02;;;12.00;99.90;;;;;;5094182;27;20043;-68
2021/09/03 01:26:16;;;;;;;47.38;27.95;;;12.00;99.90;;;;;;5096020;27;20457;-68
2021/09/03 01:28:45;;;;;;;41.45;24.67;;;12.00;99.90;;;;;;5097537;27;20636;-68
2021/09/03 01:31:10;;;;;;;39.55;24.60;;;12.00;99.90;;;;;;5124924;27;20156;-68
2021/09/03 01:33:36;;;;;;;42.42;25.35;;;11.90;99.90;;;;;;5095884;28;20077;-68
2021/09/03 01:36:01;;;;;;;47.05;26.10;;;11.90;99.90;;;;;;5095669;28;20035;-68
2021/09/03 01:38:27;;;;;;;33.47;21.73;;;11.80;99.90;;;;;;5091816;28;20096;-68
2021/09/03 01:40:53;;;;;;;21.17;17.17;;;11.80;99.90;;;;;;5092167;28;20127;-68
2021/09/03 01:43:18;;;;;;;22.23;18.05;;;11.70;99.90;;;;;;5094649;28;20028;-68
2021/09/03 01:45:45;;;;;;;13.93;12.00;;;11.60;99.90;;;;;;5094829;28;20044;-68
2021/09/03 01:48:11;;;;;;;9.48;5.90;;;11.50;99.90;;;;;;5096586;27;20051;-68
2021/09/03 01:50:36;;;;;;;13.35;8.77;;;11.40;99.90;;;;;;5094930;28;20533;-68
2021/09/03 01:53:02;;;;;;;10.27;8.48;;;11.40;99.90;;;;;;5096414;28;20039;-68
2021/09/03 01:55:28;;;;;;;15.77;9.10;;;11.30;99.90;;;;;;5096865;28;20046;-68
2021/09/03 01:57:53;;;;;;;18.77;13.48;;;11.30;99.90;;;;;;5091338;28;20064;-68
2021/09/03 02:00:19;;;;;;;22.90;14.05;;;11.30;99.90;;;;;;5096985;28;20046;-68
2021/09/03 02:02:45;;;;;;;15.18;11.90;;;11.20;99.90;;;;;;5097311;28;20137;-68
2021/09/03 02:05:10;;;;;;;17.85;13.38;;;11.20;99.90;;;;;;5097177;28;20130;-68
2021/09/03 02:07:36;;;;;;;14.32;12.82;;;11.10;99.90;;;;;;5126959;27;20046;-68
2021/09/03 02:10:06;;;;;;;10.95;9.85;;;11.00;99.90;;;;;;5096217;28;20408;-68
2021/09/03 02:12:31;;;;;;;12.00;9.85;;;10.90;99.90;;;;;;5096616;28;20043;-68
2021/09/03 02:14:57;;;;;;;14.32;9.70;;;10.80;99.90;;;;;;5096812;27;20406;-68
2021/09/03 02:17:23;;;;;;;23.20;13.52;;;10.80;99.90;;;;;;5098517;28;20046;-68
2021/09/03 02:19:48;;;;;;;24.40;13.43;;;10.80;99.90;;;;;;5103315;27;20508;-68
2021/09/03 02:22:15;;;;;;;24.23;14.00;;;10.80;99.90;;;;;;5102148;27;20514;-68
2021/09/03 02:24:40;;;;;;;20.50;12.95;;;10.80;99.90;;;;;;5102302;27;20051;-68
2021/09/03 02:27:06;;;;;;;21.90;13.63;;;10.80;99.90;;;;;;5096826;28;20031;-68
2021/09/03 02:29:32;;;;;;;15.23;13.18;;;10.70;99.90;;;;;;5102851;27;20028;-68
2021/09/03 02:31:57;;;;;;;11.55;10.38;;;10.70;99.90;;;;;;5103009;28;20124;-68
2021/09/03 02:34:23;;;;;;;7.85;7.15;;;10.60;99.90;;;;;;5109069;27;20673;-68
2021/09/03 02:36:49;;;;;;;10.00;8.40;;;10.60;99.90;;;;;;5106907;27;20063;-68
2021/09/03 02:39:20;;;;;;;10.68;8.52;;;10.50;99.90;;;;;;5106263;28;20047;-68
2021/09/03 02:41:46;;;;;;;11.90;8.20;;;10.40;99.90;;;;;;5105658;27;20048;-68
2021/09/03 02:44:11;;;;;;;10.77;8.68;;;10.50;99.90;;;;;;5108297;27;20039;-68
2021/09/03 02:46:38;;;;;;;8.25;6.43;;;10.40;99.90;;;;;;5107513;27;20043;-68
2021/09/03 02:49:04;;;;;;;1.77;1.40;;;10.40;99.90;;;;;;5104977;28;20047;-68
2021/09/03 02:51:29;;;;;;;7.15;3.95;;;10.40;99.90;;;;;;5104708;28;20043;-68
2021/09/03 02:53:55;;;;;;;6.50;3.70;;;10.40;99.90;;;;;;5107177;27;20043;-68
2021/09/03 02:56:21;;;;;;;6.70;4.15;;;10.30;99.90;;;;;;5104684;27;20071;-67
2021/09/03 02:58:46;;;;;;;5.78;4.45;;;10.30;99.90;;;;;;5108178;27;20036;-68
2021/09/03 03:01:12;;;;;;;3.75;2.50;;;10.30;99.90;;;;;;5107132;27;20035;-68
2021/09/03 03:03:38;;;;;;;8.48;4.68;;;10.20;99.90;;;;;;5104351;27;20043;-68
2021/09/03 03:06:03;;;;;;;11.93;6.07;;;10.20;99.90;;;;;;5102353;28;20036;-68
2021/09/03 03:08:29;;;;;;;8.88;5.50;;;10.20;99.90;;;;;;5109293;27;20050;-68
2021/09/03 03:10:54;;;;;;;11.38;7.97;;;10.20;99.90;;;;;;5108646;27;20113;-68
2021/09/03 03:13:22;;;;;;;12.85;9.23;;;10.20;99.90;;;;;;5107339;27;20095;-68
2021/09/03 03:15:48;;;;;;;16.45;7.97;;;10.20;99.90;;;;;;5105961;28;20040;-68
2021/09/03 03:18:14;;;;;;;16.08;9.38;;;10.10;99.90;;;;;;5105572;28;20036;-68
2021/09/03 03:20:41;;;;;;;8.63;6.50;;;10.20;99.90;;;;;;5105306;28;20039;-67
2021/09/03 03:23:07;;;;;;;6.95;6.25;;;10.10;99.90;;;;;;5103089;27;20044;-67
2021/09/03 03:25:33;;;;;;;7.97;5.40;;;10.20;99.90;;;;;;5104344;28;20063;-67
2021/09/03 03:27:58;;;;;;;10.18;5.15;;;10.10;99.90;;;;;;5105653;27;20049;-67
2021/09/03 03:30:24;;;;;;;8.13;5.20;;;10.10;99.90;;;;;;5106373;28;20164;-67
2021/09/03 03:32:49;;;;;;;10.90;6.50;;;10.00;99.90;;;;;;5104508;27;20028;-67
2021/09/03 03:35:15;;;;;;;10.25;7.82;;;9.90;99.90;;;;;;5102128;28;20081;-67
2021/09/03 03:37:40;;;;;;;8.13;6.75;;;9.90;99.90;;;;;;5105134;28;20058;-67
2021/09/03 03:40:06;;;;;;;14.50;9.65;;;9.90;99.90;;;;;;5103814;28;20036;-67
2021/09/03 03:42:32;;;;;;;15.45;10.90;;;9.80;99.90;;;;;;5103174;27;20047;-67
2021/09/03 03:44:57;;;;;;;21.20;13.55;;;9.80;99.90;;;;;;5106573;27;20378;-67
2021/09/03 03:47:23;;;;;;;20.77;13.05;;;9.80;99.90;;;;;;5101912;28;20043;-67
2021/09/03 03:49:49;;;;;;;18.55;11.95;;;9.80;99.90;;;;;;5104373;28;20126;-67
2021/09/03 03:52:14;;;;;;;18.60;7.10;;;9.80;99.90;;;;;;5106042;28;20048;-67
2021/09/03 03:54:40;;;;;;;27.13;8.20;;;9.70;99.90;;;;;;5106036;27;20048;-67
2021/09/03 03:57:05;;;;;;;8.43;7.60;;;9.70;99.90;;;;;;5100078;27;20043;-67
2021/09/03 03:59:31;;;;;;;8.00;7.13;;;9.60;99.90;;;;;;5103410;27;20036;-68
2021/09/03 04:01:57;;;;;;;8.80;5.15;;;9.60;99.90;;;;;;5103442;27;20036;-67
2021/09/03 04:04:22;;;;;;;36.88;3.75;;;9.50;99.90;;;;;;5108784;27;20043;-67
2021/09/03 04:06:48;;;;;;;30.30;2.72;;;9.60;99.90;;;;;;5105710;27;20035;-67
2021/09/03 04:09:14;;;;;;;112.35;8.45;;;9.50;99.90;;;;;;5104626;27;20524;-67
2021/09/03 04:11:41;;;;;;;4.88;4.47;;;9.50;99.90;;;;;;5102749;27;20160;-67
2021/09/03 04:14:07;;;;;;;9.00;5.80;;;9.50;99.90;;;;;;5100281;27;20501;-67
2021/09/03 04:16:33;;;;;;;12.45;3.97;;;9.40;99.90;;;;;;5098982;28;20040;-68
2021/09/03 04:18:59;;;;;;;9.07;7.43;;;9.40;99.90;;;;;;5099600;28;20043;-68
2021/09/03 04:21:24;;;;;;;12.05;9.05;;;9.30;99.90;;;;;;5100787;28;20089;-68
2021/09/03 04:23:50;;;;;;;12.43;8.75;;;9.30;99.90;;;;;;5101002;28;20044;-67
2021/09/03 04:26:16;;;;;;;17.92;11.15;;;9.30;99.90;;;;;;5102304;27;20044;-68
2021/09/03 04:28:43;;;;;;;14.50;9.85;;;9.30;99.90;;;;;;5104428;28;20096;-67
2021/09/03 04:31:09;;;;;;;11.35;8.20;;;9.40;99.90;;;;;;5130686;27;20557;-67
2021/09/03 04:33:34;;;;;;;7.88;5.95;;;9.30;99.90;;;;;;5102457;28;20039;-67
2021/09/03 04:36:00;;;;;;;4.78;4.38;;;9.30;99.90;;;;;;5102465;28;20056;-67
2021/09/03 04:38:26;;;;;;;5.55;4.90;;;9.30;99.90;;;;;;5107202;28;20059;-67
2021/09/03 04:40:51;;;;;;;8.88;7.22;;;9.20;99.90;;;;;;5104539;28;20032;-67
2021/09/03 04:43:17;;;;;;;10.40;8.20;;;9.30;99.90;;;;;;5128675;27;20511;-67
2021/09/03 04:45:43;;;;;;;8.93;7.35;;;9.30;99.90;;;;;;5104679;28;20067;-67
2021/09/03 04:48:08;;;;;;;8.32;6.03;;;9.20;99.90;;;;;;5101042;28;20040;-67
2021/09/03 04:50:34;;;;;;;8.80;5.40;;;9.20;99.90;;;;;;5104523;28;20059;-67
2021/09/03 04:53:00;;;;;;;9.60;6.85;;;9.20;99.90;;;;;;5109135;28;20050;-68
2021/09/03 04:55:25;;;;;;;12.48;7.85;;;9.20;99.90;;;;;;5102940;28;20493;-68
2021/09/03 04:57:51;;;;;;;8.73;6.43;;;9.20;99.90;;;;;;5103290;28;20040;-68
2021/09/03 05:00:17;;;;;;;11.90;7.88;;;9.20;99.90;;;;;;5101572;27;20043;-68
2021/09/03 05:02:44;;;;;;;12.27;7.95;;;9.30;99.90;;;;;;5102627;28;20505;-67
2021/09/03 05:05:10;;;;;;;12.88;7.50;;;9.20;99.90;;;;;;5103180;28;20036;-67
2021/09/03 05:07:35;;;;;;;15.52;8.60;;;9.20;99.90;;;;;;5101530;28;20058;-68
2021/09/03 05:10:02;;;;;;;16.05;9.48;;;9.20;99.90;;;;;;5097751;28;20506;-68
2021/09/03 05:12:28;;;;;;;58.08;11.63;;;9.20;99.90;;;;;;5096149;28;20032;-67
2021/09/03 05:14:54;;;;;;;38.13;8.88;;;9.20;99.90;;;;;;5099445;28;20043;-67
2021/09/03 05:17:21;;;;;;;122.40;10.57;;;9.20;99.90;;;;;;5098169;28;20036;-67
2021/09/03 05:19:47;;;;;;;20.85;7.97;;;9.30;99.90;;;;;;5100529;27;20070;-67
2021/09/03 05:22:12;;;;;;;16.90;8.18;;;9.20;99.90;;;;;;5095421;28;20038;-67
2021/09/03 05:24:38;;;;;;;11.77;9.23;;;9.40;99.90;;;;;;5128022;27;20084;-67
2021/09/03 05:27:04;;;;;;;7.65;6.95;;;9.60;99.90;;;;;;5099757;27;20055;-68
2021/09/03 05:29:29;;;;;;;7.45;5.30;;;10.10;99.90;;;;;;5095438;28;20070;-68
2021/09/03 05:31:55;;;;;;;8.05;7.05;;;10.50;99.90;;;;;;5095898;28;20036;-67
2021/09/03 05:34:20;;;;;;;6.38;5.40;;;11.00;99.90;;;;;;5095006;28;20062;-68
2021/09/03 05:36:46;;;;;;;5.72;4.53;;;11.50;99.90;;;;;;5099204;28;20044;-67
2021/09/03 05:39:12;;;;;;;4.78;3.67;;;12.00;99.90;;;;;;5096722;28;20134;-68
2021/09/03 05:41:37;;;;;;;7.65;5.75;;;12.20;99.90;;;;;;5092232;28;20163;-68
2021/09/03 05:44:03;;;;;;;9.95;8.02;;;12.50;99.90;;;;;;5124727;27;20048;-68
2021/09/03 05:46:29;;;;;;;8.40;5.10;;;12.80;99.90;;;;;;5091458;28;20138;-68
2021/09/03 05:48:54;;;;;;;7.60;5.78;;;13.10;99.90;;;;;;5096002;28;20028;-68
2021/09/03 05:51:20;;;;;;;6.68;5.38;;;13.50;99.90;;;;;;5092877;28;20511;-68
2021/09/03 05:53:46;;;;;;;10.20;7.97;;;14.00;99.90;;;;;;5095586;28;20528;-68
2021/09/03 05:56:12;;;;;;;8.88;7.32;;;14.60;99.90;;;;;;5092601;28;20078;-68
2021/09/03 05:58:37;;;;;;;9.45;8.43;;;15.10;99.90;;;;;;5095881;28;20850;-68
2021/09/03 06:01:04;;;;;;;10.25;9.07;;;15.60;99.90;;;;;;5126481;27;20050;-68
2021/09/03 06:03:30;;;;;;;13.88;9.02;;;16.40;99.90;;;;;;5093992;28;20040;-68
2021/09/03 06:05:56;;;;;;;13.07;10.65;;;17.30;99.90;;;;;;5093711;28;20100;-68
2021/09/03 06:08:21;;;;;;;11.80;9.50;;;18.10;99.90;;;;;;5097821;28;20067;-68
2021/09/03 06:10:47;;;;;;;11.18;8.50;;;18.80;99.90;;;;;;5095628;28;20031;-66
2021/09/03 06:13:13;;;;;;;11.32;8.73;;;19.60;99.90;;;;;;5094486;28;20085;-66
2021/09/03 06:15:38;;;;;;;11.63;8.75;;;20.40;99.90;;;;;;5079981;28;20043;-66
2021/09/03 06:18:04;;;;;;;11.52;9.27;;;21.10;99.90;;;;;;5096354;28;20044;-66
2021/09/03 06:20:30;;;;;;;9.18;7.88;;;21.80;99.90;;;;;;5092471;28;20085;-66
2021/09/03 06:22:55;;;;;;;9.77;8.68;;;22.40;99.90;;;;;;5098633;28;20393;-65
2021/09/03 06:25:21;;;;;;;9.73;7.35;;;22.80;99.90;;;;;;5100054;28;20051;-65
2021/09/03 06:27:47;;;;;;;9.10;8.07;;;23.20;99.90;;;;;;5094882;28;20049;-65
2021/09/03 06:30:12;;;;;;;10.25;7.72;;;23.80;98.40;;;;;;5096397;28;20040;-66
2021/09/03 06:32:38;;;;;;;11.05;9.45;;;24.10;95.80;;;;;;5097331;28;20040;-66
2021/09/03 06:35:07;;;;;;;12.07;9.57;;;24.30;94.30;;;;;;5120736;27;20044;-66
2021/09/03 06:37:33;;;;;;;10.25;8.48;;;24.30;94.30;;;;;;5095310;28;20532;-66
2021/09/03 06:39:59;;;;;;;9.70;8.52;;;24.80;94.40;;;;;;5088654;28;20048;-66
2021/09/03 06:42:28;;;;;;;12.30;10.57;;;25.20;93.80;;;;;;5092633;28;20047;-66
2021/09/03 06:44:53;;;;;;;10.65;9.10;;;25.40;92.00;;;;;;5091129;28;20120;-66
2021/09/03 06:47:19;;;;;;;16.13;11.15;;;25.60;89.30;;;;;;5093490;28;20086;-66
2021/09/03 06:49:45;;;;;;;11.00;9.35;;;25.90;88.10;;;;;;5123082;27;20454;-66
2021/09/03 06:52:11;;;;;;;13.13;9.70;;;26.20;85.70;;;;;;5090582;28;20578;-66
2021/09/03 06:54:38;;;;;;;15.80;10.10;;;26.50;84.20;;;;;;5091935;28;20032;-66
2021/09/03 06:57:04;;;;;;;11.60;9.02;;;26.60;81.10;;;;;;5090890;28;20040;-66
2021/09/03 06:59:30;;;;;;;12.32;9.40;;;27.00;78.30;;;;;;5092268;28;20050;-66
2021/09/03 07:01:57;;;;;;;13.20;9.15;;;27.40;75.60;;;;;;5095062;28;20062;-67
2021/09/03 07:04:23;;;;;;;13.50;9.55;;;27.80;72.40;;;;;;5095970;28;20061;-66
2021/09/03 07:06:50;;;;;;;11.93;9.02;;;28.10;70.10;;;;;;5094735;28;20040;-66
2021/09/03 07:09:16;;;;;;;12.85;10.13;;;28.00;69.20;;;;;;5097011;27;20119;-66
2021/09/03 07:11:42;;;;;;;14.00;10.38;;;27.00;72.00;;;;;;5093444;28;20046;-66
2021/09/03 07:14:08;;;;;;;15.05;10.60;;;26.20;77.40;;;;;;5096596;28;20146;-66
2021/09/03 07:16:33;;;;;;;14.65;9.73;;;25.50;81.00;;;;;;5094260;28;20071;-66
2021/09/03 07:19:03;;;;;;;12.73;10.80;;;25.00;87.90;;;;;;5094482;28;20048;-65
2021/09/03 07:21:32;;;;;;;15.50;10.63;;;24.40;92.30;;;;;;5096554;28;20122;-65
2021/09/03 07:24:00;;;;;;;15.45;10.70;;;23.90;94.80;;;;;;5098148;28;20028;-65
2021/09/03 07:26:26;;;;;;;14.07;10.30;;;23.40;96.80;;;;;;5096415;28;20109;-65
2021/09/03 07:28:53;;;;;;;14.02;10.70;;;23.00;98.70;;;;;;5126089;27;20039;-65
2021/09/03 07:31:19;;;;;;;18.52;10.98;;;22.70;99.90;;;;;;5096164;28;20089;-65
2021/09/03 07:33:45;;;;;;;12.73;9.63;;;22.50;99.90;;;;;;5092690;28;20028;-65
2021/09/03 07:36:10;;;;;;;21.45;11.27;;;22.10;99.90;;;;;;5094608;28;20043;-65
2021/09/03 07:38:36;;;;;;;16.02;10.90;;;21.90;99.90;;;;;;5095879;28;20043;-65
2021/09/03 07:41:02;;;;;;;14.43;9.93;;;21.70;99.90;;;;;;5099941;27;20040;-65
2021/09/03 07:43:28;;;;;;;15.25;9.90;;;21.30;99.90;;;;;;5094703;28;20035;-65
2021/09/03 07:45:55;;;;;;;14.63;9.98;;;21.10;99.90;;;;;;5094393;28;20409;-65
2021/09/03 07:48:21;;;;;;;18.45;9.75;;;20.90;99.90;;;;;;5094214;28;20366;-65
2021/09/03 07:50:47;;;;;;;14.23;8.73;;;20.70;99.90;;;;;;5095806;28;20055;-65
2021/09/03 07:53:13;;;;;;;16.92;9.70;;;20.60;99.90;;;;;;5095580;28;20165;-65
2021/09/03 07:55:39;;;;;;;13.40;9.55;;;20.50;99.90;;;;;;5095520;28;20495;-65
2021/09/03 07:58:05;;;;;;;21.02;10.60;;;20.40;99.90;;;;;;5094618;27;20126;-65
2021/09/03 08:00:32;;;;;;;14.63;9.07;;;20.30;99.90;;;;;;5093866;28;20088;-65
2021/09/03 08:02:57;;;;;;;15.50;9.38;;;20.20;99.90;;;;;;5096221;28;20121;-65
2021/09/03 08:05:23;;;;;;;14.32;9.27;;;20.10;99.90;;;;;;5097945;27;20144;-65
2021/09/03 08:07:49;;;;;;;16.70;8.25;;;20.10;99.90;;;;;;5128327;27;20073;-65
2021/09/03 08:10:21;;;;;;;16.20;7.90;;;20.10;99.90;;;;;;5094834;28;20028;-65
2021/09/03 08:12:47;;;;;;;14.52;8.85;;;20.10;99.90;;;;;;5093877;28;20043;-65
2021/09/03 08:15:14;;;;;;;14.55;7.00;;;20.10;99.90;;;;;;5095958;27;20039;-65
2021/09/03 08:17:39;;;;;;;16.48;6.95;;;20.10;99.90;;;;;;5095484;28;20506;-65
2021/09/03 08:20:07;;;;;;;15.75;8.73;;;20.10;99.90;;;;;;5097240;28;20059;-65
2021/09/03 08:22:33;;;;;;;15.27;7.05;;;20.00;99.90;;;;;;5095942;28;20519;-65
2021/09/03 08:24:59;;;;;;;12.45;7.38;;;19.90;99.90;;;;;;5097125;27;20127;-65
2021/09/03 08:27:25;;;;;;;13.00;7.43;;;19.80;99.90;;;;;;5093406;28;20493;-65
2021/09/03 08:29:51;;;;;;;15.63;7.68;;;19.70;99.90;;;;;;5093764;27;20035;-65
2021/09/03 08:32:17;;;;;;;17.23;8.38;;;19.60;99.90;;;;;;5094441;28;20046;-65
2021/09/03 08:34:43;;;;;;;12.40;6.60;;;19.50;99.90;;;;;;5095437;28;20055;-65
2021/09/03 08:37:21;;;;;;;14.85;7.95;;;19.40;99.90;;;;;;5096280;28;20050;-65
2021/09/03 08:39:48;;;;;;;13.65;7.80;;;19.40;99.90;;;;;;5093938;28;20516;-65
2021/09/03 08:42:14;;;;;;;16.80;8.23;;;19.40;99.90;;;;;;5092189;28;20169;-65
2021/09/03 08:44:40;;;;;;;17.30;7.65;;;19.60;99.90;;;;;;5093622;28;20028;-65
2021/09/03 08:47:09;;;;;;;15.20;7.05;;;19.90;99.90;;;;;;5091952;28;20035;-65
2021/09/03 08:49:34;;;;;;;13.73;7.53;;;20.10;99.90;;;;;;5092470;28;20061;-65
2021/09/03 08:52:03;;;;;;;13.93;7.60;;;20.30;99.90;;;;;;5093380;27;20058;-66
2021/09/03 08:54:29;;;;;;;15.30;7.75;;;20.50;99.90;;;;;;5097420;27;20421;-65
2021/09/03 08:56:55;;;;;;;13.63;7.32;;;20.60;99.90;;;;;;5092867;28;20115;-65
2021/09/03 08:59:20;;;;;;;14.55;6.75;;;20.70;99.90;;;;;;5093585;28;20167;-65
2021/09/03 09:02:12;;;;;;;18.27;8.00;;;20.80;99.90;;;;;;5091821;28;20040;-65
2021/09/03 09:04:40;;;;;;;15.30;7.72;;;20.00;99.90;;;;;;5094742;27;20439;-65
2021/09/03 09:07:06;;;;;;;13.13;6.78;;;20.20;99.90;;;;;;5093013;28;20040;-65
2021/09/03 09:09:34;;;;;;;15.15;7.03;;;20.10;99.90;;;;;;5093867;28;20036;-65
2021/09/03 09:12:04;;;;;;;17.13;8.23;;;20.10;99.90;;;;;;5094226;28;20381;-65
2021/09/03 09:14:50;;;;;;;12.85;6.95;;;20.10;99.90;;;;;;5093219;28;20039;-65
2021/09/03 09:17:37;;;;;;;20.23;7.22;;;20.10;99.90;;;;;;5094777;28;20508;-65
2021/09/03 09:20:08;;;;;;;17.95;7.38;;;20.50;99.90;;;;;;5092377;28;20051;-65
2021/09/03 09:22:54;;;;;;;15.90;7.18;;;20.50;99.90;;;;;;5093709;28;20036;-65
2021/09/03 09:25:21;;;;;;;;;;;20.70;99.90;;;;;;5092911;28;20031;-65
2021/09/03 09:27:48;;;;;;;15.85;7.85;;;20.90;99.90;;;;;;5094426;28;20420;-65
2021/09/03 09:30:27;;;;;;;16.83;7.43;;;20.30;99.90;;;;;;5094620;28;20047;-65
2021/09/03 09:33:14;;;;;;;15.77;6.38;;;20.20;99.90;;;;;;5093235;28;20050;-65
2021/09/03 09:35:46;;;;;;;14.82;7.28;;;20.30;99.90;;;;;;5094291;27;20119;-65
2021/09/03 09:38:13;;;;;;;13.85;6.68;;;20.30;99.90;;;;;;5093574;28;20089;-65
2021/09/03 09:40:47;;;;;;;15.85;7.13;;;20.70;99.90;;;;;;5093086;28;20092;-65
2021/09/03 09:43:33;;;;;;;16.55;7.47;;;21.00;99.90;;;;;;5095220;27;20050;-65
2021/09/03 09:46:23;;;;;;;16.35;7.85;;;21.30;99.90;;;;;;5093506;28;20043;-65
2021/09/03 09:48:48;;;;;;;20.27;8.40;;;21.20;99.90;;;;;;5093327;28;20071;-65
2021/09/03 09:51:41;;;;;;;17.67;7.40;;;21.30;99.90;;;;;;5094024;28;20131;-66
2021/09/03 09:54:14;;;;;;;20.80;8.07;;;21.40;99.90;;;;;;5084389;28;20048;-65
2021/09/03 09:57:01;;;;;;;14.55;7.03;;;21.30;99.90;;;;;;5095114;28;20501;-65
2021/09/03 09:59:29;;;;;;;16.58;7.05;;;21.20;99.90;;;;;;5090430;28;20092;-65
2021/09/03 10:01:57;;;;;;;15.00;6.97;;;21.10;99.90;;;;;;5127020;27;20043;-65
2021/09/03 10:04:25;;;;;;;19.88;7.70;;;20.90;99.90;;;;;;5092458;28;20051;-65
2021/09/03 10:06:53;;;;;;;15.60;7.15;;;20.80;99.90;;;;;;5094554;28;20035;-65
2021/09/03 10:09:21;;;;;;;19.02;7.97;;;20.80;99.90;;;;;;5091994;28;20070;-65
2021/09/03 10:11:50;;;;;;;14.65;7.20;;;20.80;99.90;;;;;;5096351;28;20042;-66
2021/09/03 10:14:27;;;;;;;16.05;7.43;;;20.70;99.90;;;;;;5091713;28;20051;-67
2021/09/03 10:16:55;;;;;;;17.80;7.53;;;20.50;99.90;;;;;;5093955;28;20051;-66
2021/09/03 10:19:30;;;;;;;11.70;6.68;;;20.30;99.90;;;;;;5095262;28;20043;-67
2021/09/03 10:22:08;;;;;;;12.75;6.82;;;20.30;99.90;;;;;;5091571;28;20089;-67
2021/09/03 10:24:38;;;;;;;18.73;7.70;;;20.30;99.90;;;;;;5091770;28;20066;-67
2021/09/03 10:27:06;;;;;;;14.75;7.55;;;20.50;99.90;;;;;;5092528;28;20595;-67
2021/09/03 10:29:36;;;;;;;12.80;6.63;;;20.40;99.90;;;;;;5094426;28;20064;-67
2021/09/03 10:34:40;;;;;;;15.50;7.28;;;20.50;99.90;;;;;;5092609;28;20110;-67
2021/09/03 10:37:19;;;;;;;16.50;8.43;;;20.50;99.90;;;;;;5095861;28;20043;-67
2021/09/03 10:39:55;;;;;;;19.48;8.95;;;20.30;99.90;;;;;;5096822;28;20115;-67
2021/09/03 10:45:04;;;;;;;14.15;7.63;;;20.00;99.90;;;;;;5093901;28;20436;-67
2021/09/03 10:47:30;;;;;;;19.10;7.47;;;20.00;99.90;;;;;;5094347;28;20046;-67
2021/09/03 10:49:57;;;;;;;17.35;9.10;;;20.00;99.90;;;;;;5098157;27;20044;-67
2021/09/03 10:52:22;;;;;;;19.00;9.23;;;20.10;99.90;;;;;;5097488;27;20057;-67
2021/09/03 10:54:48;;;;;;;16.85;8.65;;;20.20;99.90;;;;;;5094862;28;20063;-67
2021/09/03 10:57:17;;;;;;;17.08;8.38;;;20.20;99.90;;;;;;5100322;28;20488;-67
2021/09/03 11:00:17;;;;;;;18.10;9.05;;;20.10;99.90;;;;;;5099567;28;20077;-67
2021/09/03 11:02:43;;;;;;;18.27;8.55;;;20.20;99.90;;;;;;5096412;28;20660;-67
2021/09/03 11:05:13;;;;;;;17.77;8.57;;;20.40;99.90;;;;;;5100464;28;20031;-67
2021/09/03 11:07:43;;;;;;;17.65;8.27;;;20.50;99.90;;;;;;5116384;27;20059;-67
2021/09/03 11:10:20;;;;;;;19.52;9.27;;;20.50;99.90;;;;;;5097468;28;20054;-67
2021/09/03 11:12:53;;;;;;;20.77;8.98;;;20.50;99.90;;;;;;5101140;27;20496;-67
2021/09/03 11:15:19;;;;;;;17.00;7.85;;;20.50;99.90;;;;;;5096918;28;20043;-67
2021/09/03 11:17:46;;;;;;;18.63;9.50;;;20.30;99.90;;;;;;5091100;27;20081;-67
2021/09/03 11:20:14;;;;;;;14.77;8.32;;;20.20;99.90;;;;;;5097002;28;20507;-67
2021/09/03 11:22:42;;;;;;;16.75;9.05;;;20.00;99.90;;;;;;5100855;27;20059;-67
2021/09/03 11:25:08;;;;;;;19.15;9.57;;;20.10;99.90;;;;;;5101089;27;20020;-68
2021/09/03 11:27:36;;;;;;;16.10;8.63;;;19.80;99.90;;;;;;5097887;27;20150;-67
2021/09/03 11:30:09;;;;;;;14.40;8.52;;;19.90;99.90;;;;;;5094909;28;20032;-67
2021/09/03 11:32:38;;;;;;;15.77;8.88;;;20.10;99.90;;;;;;5085747;28;20056;-67
2021/09/03 11:35:09;;;;;;;19.13;10.73;;;20.20;99.90;;;;;;5085715;28;20410;-68
2021/09/03 11:37:46;;;;;;;20.52;11.10;;;20.00;99.90;;;;;;5089740;27;20043;-67
2021/09/03 11:40:27;;;;;;;19.35;10.25;;;19.70;99.90;;;;;;5100344;28;20142;-67
2021/09/03 11:42:56;;;;;;;16.60;9.40;;;19.70;99.90;;;;;;5097650;27;20361;-66
2021/09/03 11:45:23;;;;;;;14.07;9.38;;;19.90;99.90;;;;;;5103624;27;20043;-67
2021/09/03 11:47:52;;;;;;;15.75;9.23;;;20.20;99.90;;;;;;5103286;28;20050;-67
2021/09/03 11:50:28;;;;;;;14.80;9.20;;;20.00;99.90;;;;;;5101734;28;20879;-67
2021/09/03 11:52:55;;;;;;;16.25;10.30;;;20.20;99.90;;;;;;5098565;28;20035;-67
2021/09/03 11:55:21;;;;;;;17.98;9.68;;;20.40;99.90;;;;;;5101278;28;20485;-67
2021/09/03 11:57:54;;;;;;;20.88;10.07;;;20.50;99.90;;;;;;5133006;27;20039;-67
2021/09/03 12:00:23;;;;;;;16.02;9.52;;;20.50;99.90;;;;;;5102514;28;20127;-67
2021/09/03 12:02:50;;;;;;;18.50;9.20;;;20.50;99.90;;;;;;5101356;28;20054;-67
2021/09/03 12:05:17;;;;;;;17.83;9.55;;;20.50;99.90;;;;;;5112847;27;20037;-67
2021/09/03 12:08:01;;;;;;;14.45;8.60;;;20.50;99.90;;;;;;5094554;28;20468;-67
2021/09/03 12:10:34;;;;;;;17.10;9.33;;;20.60;99.90;;;;;;5130060;27;20084;-67
2021/09/03 12:13:15;;;;;;;18.73;9.27;;;20.70;99.90;;;;;;5102571;28;20039;-67
2021/09/03 12:15:43;;;;;;;18.35;9.02;;;20.70;99.90;;;;;;5100955;28;20043;-67
2021/09/03 12:18:38;;;;;;;15.80;10.23;;;20.90;99.90;;;;;;5105796;28;20046;-67
2021/09/03 12:21:19;;;;;;;15.33;10.17;;;20.80;99.90;;;;;;5102363;28;20481;-67
2021/09/03 12:23:59;;;;;;;16.83;8.95;;;20.60;99.90;;;;;;5137426;27;20076;-67
2021/09/03 12:26:50;;;;;;;15.10;9.93;;;20.50;99.90;;;;;;5099967;28;20050;-67
2021/09/03 12:29:29;;;;;;;13.85;8.75;;;20.20;99.90;;;;;;5103111;28;20483;-67
2021/09/03 12:31:56;;;;;;;17.45;9.25;;;20.30;99.90;;;;;;5102592;28;20036;-67
2021/09/03 12:34:30;;;;;;;16.17;8.82;;;20.30;99.90;;;;;;5101012;28;20032;-67
2021/09/03 12:37:16;;;;;;;17.38;8.85;;;20.40;99.90;;;;;;5103669;28;20082;-67
2021/09/03 12:39:41;;;;;;;17.17;9.80;;;20.20;99.90;;;;;;5101548;27;20165;-67
2021/09/03 12:42:17;;;;;;;15.30;9.68;;;19.90;99.90;;;;;;5102515;28;20051;-67
2021/09/03 12:44:43;;;;;;;12.32;8.45;;;20.00;99.90;;;;;;5098570;28;20067;-67
2021/09/03 12:47:09;;;;;;;13.93;8.80;;;20.10;99.90;;;;;;5102297;28;20435;-67